sensor_id;sensor_type;location;lat;lon;timestamp;P1;durP1;ratioP1;P2;durP2;ratioP2
58015;SDS011;43809;52.110;20.964;2023-05-02T00:00:00;9.80;;;4.45;;
58015;SDS011;43809;52.110;20.964;2023-05-02T00:02:00;10.30;;;4.85;;
58015;SDS011;43809;52.110;20.964;2023-05-02T00:04:00;9.65;;;5.38;;
58015;SDS011;43809;52.110;20.964;2023-05-02T00:06:01;10.52;;;5.38;;
58015;SDS011;43809;52.110;20.964;2023-05-02T00:08:02;7.68;;;5.32;;
58015;SDS011;43809;52.110;20.964;2023-05-02T00:10:02;10.20;;;5.13;;
58015;SDS011;43809;52.110;20.964;2023-05-02T00:12:02;12.00;;;5.85;;
58015;SDS011;43809;52.110;20.964;2023-05-02T00:14:03;10.32;;;5.00;;
58015;SDS011;43809;52.110;20.964;2023-05-02T00:16:03;8.32;;;5.00;;
58015;SDS011;43809;52.110;20.964;2023-05-02T00:18:04;8.90;;;4.88;;
58015;SDS011;43809;52.110;20.964;2023-05-02T00:20:04;9.43;;;5.28;;
58015;SDS011;43809;52.110;20.964;2023-05-02T00:22:05;9.75;;;5.07;;
58015;SDS011;43809;52.110;20.964;2023-05-02T00:24:05;12.48;;;5.30;;
58015;SDS011;43809;52.110;20.964;2023-05-02T00:26:08;7.88;;;4.82;;
58015;SDS011;43809;52.110;20.964;2023-05-02T00:28:10;9.35;;;5.22;;
58015;SDS011;43809;52.110;20.964;2023-05-02T00:30:10;8.68;;;5.20;;
58015;SDS011;43809;52.110;20.964;2023-05-02T00:32:10;13.32;;;6.00;;
58015;SDS011;43809;52.110;20.964;2023-05-02T00:34:11;10.02;;;5.32;;
58015;SDS011;43809;52.110;20.964;2023-05-02T00:38:14;9.88;;;5.22;;
58015;SDS011;43809;52.110;20.964;2023-05-02T00:40:15;10.40;;;5.40;;
58015;SDS011;43809;52.110;20.964;2023-05-02T00:42:17;7.47;;;4.93;;
58015;SDS011;43809;52.110;20.964;2023-05-02T00:44:17;9.30;;;5.20;;
58015;SDS011;43809;52.110;20.964;2023-05-02T00:46:17;10.77;;;4.95;;
58015;SDS011;43809;52.110;20.964;2023-05-02T00:48:18;8.27;;;4.88;;
58015;SDS011;43809;52.110;20.964;2023-05-02T00:52:20;9.27;;;5.18;;
58015;SDS011;43809;52.110;20.964;2023-05-02T00:54:21;7.63;;;4.82;;
58015;SDS011;43809;52.110;20.964;2023-05-02T00:56:23;11.15;;;5.65;;
58015;SDS011;43809;52.110;20.964;2023-05-02T00:58:23;8.07;;;4.68;;
58015;SDS011;43809;52.110;20.964;2023-05-02T01:00:32;10.45;;;5.38;;
58015;SDS011;43809;52.110;20.964;2023-05-02T01:02:50;11.95;;;5.80;;
58015;SDS011;43809;52.110;20.964;2023-05-02T01:06:58;8.95;;;5.43;;
58015;SDS011;43809;52.110;20.964;2023-05-02T01:09:01;9.13;;;5.28;;
58015;SDS011;43809;52.110;20.964;2023-05-02T01:11:13;10.13;;;5.20;;
58015;SDS011;43809;52.110;20.964;2023-05-02T01:13:28;12.50;;;5.72;;
58015;SDS011;43809;52.110;20.964;2023-05-02T01:15:30;9.10;;;5.63;;
58015;SDS011;43809;52.110;20.964;2023-05-02T01:17:32;11.35;;;5.45;;
58015;SDS011;43809;52.110;20.964;2023-05-02T01:19:34;8.70;;;5.25;;
58015;SDS011;43809;52.110;20.964;2023-05-02T01:21:35;8.18;;;4.82;;
58015;SDS011;43809;52.110;20.964;2023-05-02T01:25:59;8.85;;;5.00;;
58015;SDS011;43809;52.110;20.964;2023-05-02T01:30:08;10.70;;;4.75;;
58015;SDS011;43809;52.110;20.964;2023-05-02T01:32:11;7.47;;;5.00;;
58015;SDS011;43809;52.110;20.964;2023-05-02T01:36:16;9.13;;;5.22;;
58015;SDS011;43809;52.110;20.964;2023-05-02T01:38:18;10.88;;;5.18;;
58015;SDS011;43809;52.110;20.964;2023-05-02T01:40:19;9.23;;;5.40;;
58015;SDS011;43809;52.110;20.964;2023-05-02T01:42:20;7.53;;;4.65;;
58015;SDS011;43809;52.110;20.964;2023-05-02T01:44:22;7.90;;;4.88;;
58015;SDS011;43809;52.110;20.964;2023-05-02T01:46:26;9.13;;;4.97;;
58015;SDS011;43809;52.110;20.964;2023-05-02T01:48:29;9.75;;;5.35;;
58015;SDS011;43809;52.110;20.964;2023-05-02T01:50:30;8.02;;;4.57;;
58015;SDS011;43809;52.110;20.964;2023-05-02T01:52:30;9.73;;;4.90;;
58015;SDS011;43809;52.110;20.964;2023-05-02T01:54:34;22.25;;;5.70;;
58015;SDS011;43809;52.110;20.964;2023-05-02T01:56:35;7.75;;;4.85;;
58015;SDS011;43809;52.110;20.964;2023-05-02T01:58:36;10.33;;;5.30;;
58015;SDS011;43809;52.110;20.964;2023-05-02T02:00:37;10.45;;;5.30;;
58015;SDS011;43809;52.110;20.964;2023-05-02T02:02:40;9.50;;;5.10;;
58015;SDS011;43809;52.110;20.964;2023-05-02T02:04:40;10.65;;;4.95;;
58015;SDS011;43809;52.110;20.964;2023-05-02T02:06:43;9.52;;;4.90;;
58015;SDS011;43809;52.110;20.964;2023-05-02T02:08:44;9.02;;;4.95;;
58015;SDS011;43809;52.110;20.964;2023-05-02T02:10:48;8.93;;;5.18;;
58015;SDS011;43809;52.110;20.964;2023-05-02T02:12:51;7.38;;;4.68;;
58015;SDS011;43809;52.110;20.964;2023-05-02T02:14:55;10.63;;;4.53;;
58015;SDS011;43809;52.110;20.964;2023-05-02T02:16:55;8.48;;;5.18;;
58015;SDS011;43809;52.110;20.964;2023-05-02T02:19:01;9.15;;;4.65;;
58015;SDS011;43809;52.110;20.964;2023-05-02T02:21:06;9.30;;;4.97;;
58015;SDS011;43809;52.110;20.964;2023-05-02T02:23:08;9.23;;;4.95;;
58015;SDS011;43809;52.110;20.964;2023-05-02T02:25:10;10.70;;;4.82;;
58015;SDS011;43809;52.110;20.964;2023-05-02T02:27:13;7.63;;;4.68;;
58015;SDS011;43809;52.110;20.964;2023-05-02T02:31:13;11.52;;;4.93;;
58015;SDS011;43809;52.110;20.964;2023-05-02T02:33:13;7.25;;;4.45;;
58015;SDS011;43809;52.110;20.964;2023-05-02T02:35:13;10.80;;;4.63;;
58015;SDS011;43809;52.110;20.964;2023-05-02T02:37:16;7.70;;;4.88;;
58015;SDS011;43809;52.110;20.964;2023-05-02T02:41:38;8.70;;;4.85;;
58015;SDS011;43809;52.110;20.964;2023-05-02T02:43:52;8.35;;;4.97;;
58015;SDS011;43809;52.110;20.964;2023-05-02T02:50:08;8.32;;;4.75;;
58015;SDS011;43809;52.110;20.964;2023-05-02T02:52:10;9.82;;;4.93;;
58015;SDS011;43809;52.110;20.964;2023-05-02T02:54:17;6.97;;;4.60;;
58015;SDS011;43809;52.110;20.964;2023-05-02T02:56:21;8.80;;;4.63;;
58015;SDS011;43809;52.110;20.964;2023-05-02T03:00:26;8.95;;;5.20;;
58015;SDS011;43809;52.110;20.964;2023-05-02T03:02:28;8.82;;;4.88;;
58015;SDS011;43809;52.110;20.964;2023-05-02T03:06:30;9.13;;;4.53;;
58015;SDS011;43809;52.110;20.964;2023-05-02T03:08:40;8.68;;;4.55;;
58015;SDS011;43809;52.110;20.964;2023-05-02T03:10:40;8.95;;;4.95;;
58015;SDS011;43809;52.110;20.964;2023-05-02T03:12:41;7.63;;;4.78;;
58015;SDS011;43809;52.110;20.964;2023-05-02T03:14:42;9.45;;;4.93;;
58015;SDS011;43809;52.110;20.964;2023-05-02T03:16:42;6.78;;;4.63;;
58015;SDS011;43809;52.110;20.964;2023-05-02T03:18:43;7.80;;;4.70;;
58015;SDS011;43809;52.110;20.964;2023-05-02T03:20:43;7.88;;;4.40;;
58015;SDS011;43809;52.110;20.964;2023-05-02T03:22:43;9.18;;;4.65;;
58015;SDS011;43809;52.110;20.964;2023-05-02T03:24:44;8.52;;;4.70;;
58015;SDS011;43809;52.110;20.964;2023-05-02T03:26:45;8.90;;;4.47;;
58015;SDS011;43809;52.110;20.964;2023-05-02T03:28:46;13.23;;;5.55;;
58015;SDS011;43809;52.110;20.964;2023-05-02T03:30:46;10.02;;;4.47;;
58015;SDS011;43809;52.110;20.964;2023-05-02T03:32:47;10.95;;;4.68;;
58015;SDS011;43809;52.110;20.964;2023-05-02T03:34:47;8.37;;;4.93;;
58015;SDS011;43809;52.110;20.964;2023-05-02T03:36:47;7.55;;;4.40;;
58015;SDS011;43809;52.110;20.964;2023-05-02T03:38:48;9.80;;;5.00;;
58015;SDS011;43809;52.110;20.964;2023-05-02T03:40:48;9.52;;;4.45;;
58015;SDS011;43809;52.110;20.964;2023-05-02T03:42:48;8.55;;;4.60;;
58015;SDS011;43809;52.110;20.964;2023-05-02T03:44:50;14.55;;;5.45;;
58015;SDS011;43809;52.110;20.964;2023-05-02T03:46:51;7.10;;;4.53;;
58015;SDS011;43809;52.110;20.964;2023-05-02T03:48:51;8.45;;;4.97;;
58015;SDS011;43809;52.110;20.964;2023-05-02T03:50:53;10.10;;;4.97;;
58015;SDS011;43809;52.110;20.964;2023-05-02T03:52:54;12.35;;;4.90;;
58015;SDS011;43809;52.110;20.964;2023-05-02T03:54:54;10.27;;;4.85;;
58015;SDS011;43809;52.110;20.964;2023-05-02T03:56:54;8.88;;;4.93;;
58015;SDS011;43809;52.110;20.964;2023-05-02T03:58:54;7.38;;;4.50;;
58015;SDS011;43809;52.110;20.964;2023-05-02T04:00:55;9.40;;;4.90;;
58015;SDS011;43809;52.110;20.964;2023-05-02T04:02:55;9.40;;;5.03;;
58015;SDS011;43809;52.110;20.964;2023-05-02T04:04:55;7.05;;;4.40;;
58015;SDS011;43809;52.110;20.964;2023-05-02T04:06:55;7.65;;;4.53;;
58015;SDS011;43809;52.110;20.964;2023-05-02T04:09:00;9.82;;;5.07;;
58015;SDS011;43809;52.110;20.964;2023-05-02T04:11:00;8.55;;;4.53;;
58015;SDS011;43809;52.110;20.964;2023-05-02T04:13:00;10.43;;;4.85;;
58015;SDS011;43809;52.110;20.964;2023-05-02T04:15:02;7.38;;;4.45;;
58015;SDS011;43809;52.110;20.964;2023-05-02T04:17:02;7.35;;;4.75;;
58015;SDS011;43809;52.110;20.964;2023-05-02T04:19:03;9.85;;;4.45;;
58015;SDS011;43809;52.110;20.964;2023-05-02T04:21:03;9.57;;;5.20;;
58015;SDS011;43809;52.110;20.964;2023-05-02T04:23:03;8.95;;;4.85;;
58015;SDS011;43809;52.110;20.964;2023-05-02T04:25:04;8.18;;;4.88;;
58015;SDS011;43809;52.110;20.964;2023-05-02T04:27:04;11.70;;;5.05;;
58015;SDS011;43809;52.110;20.964;2023-05-02T04:29:05;10.68;;;5.35;;
58015;SDS011;43809;52.110;20.964;2023-05-02T04:31:06;10.15;;;5.03;;
58015;SDS011;43809;52.110;20.964;2023-05-02T04:33:06;8.88;;;4.78;;
58015;SDS011;43809;52.110;20.964;2023-05-02T04:35:06;8.60;;;5.60;;
58015;SDS011;43809;52.110;20.964;2023-05-02T04:37:07;9.82;;;5.40;;
58015;SDS011;43809;52.110;20.964;2023-05-02T04:39:07;11.80;;;5.70;;
58015;SDS011;43809;52.110;20.964;2023-05-02T04:41:07;12.82;;;6.25;;
58015;SDS011;43809;52.110;20.964;2023-05-02T04:43:07;13.38;;;7.18;;
58015;SDS011;43809;52.110;20.964;2023-05-02T04:45:08;15.57;;;8.25;;
58015;SDS011;43809;52.110;20.964;2023-05-02T04:47:08;20.13;;;10.15;;
58015;SDS011;43809;52.110;20.964;2023-05-02T04:49:08;20.33;;;9.27;;
58015;SDS011;43809;52.110;20.964;2023-05-02T04:51:10;20.35;;;8.60;;
58015;SDS011;43809;52.110;20.964;2023-05-02T04:53:10;16.58;;;7.30;;
58015;SDS011;43809;52.110;20.964;2023-05-02T04:55:11;14.75;;;6.75;;
58015;SDS011;43809;52.110;20.964;2023-05-02T04:57:11;13.20;;;6.50;;
58015;SDS011;43809;52.110;20.964;2023-05-02T04:59:12;10.52;;;6.43;;
58015;SDS011;43809;52.110;20.964;2023-05-02T05:01:12;16.10;;;7.85;;
58015;SDS011;43809;52.110;20.964;2023-05-02T05:03:13;20.40;;;6.13;;
58015;SDS011;43809;52.110;20.964;2023-05-02T05:05:13;15.20;;;7.40;;
58015;SDS011;43809;52.110;20.964;2023-05-02T05:07:14;14.27;;;7.03;;
58015;SDS011;43809;52.110;20.964;2023-05-02T05:09:14;15.75;;;7.70;;
58015;SDS011;43809;52.110;20.964;2023-05-02T05:11:15;13.90;;;5.70;;
58015;SDS011;43809;52.110;20.964;2023-05-02T05:13:15;11.20;;;5.35;;
58015;SDS011;43809;52.110;20.964;2023-05-02T05:15:16;8.75;;;4.90;;
58015;SDS011;43809;52.110;20.964;2023-05-02T05:17:16;7.72;;;4.55;;
58015;SDS011;43809;52.110;20.964;2023-05-02T05:19:17;23.25;;;5.95;;
58015;SDS011;43809;52.110;20.964;2023-05-02T05:21:17;9.93;;;5.10;;
58015;SDS011;43809;52.110;20.964;2023-05-02T05:23:17;7.45;;;4.80;;
58015;SDS011;43809;52.110;20.964;2023-05-02T05:25:17;7.78;;;4.43;;
58015;SDS011;43809;52.110;20.964;2023-05-02T05:27:17;8.68;;;4.68;;
58015;SDS011;43809;52.110;20.964;2023-05-02T05:29:18;7.93;;;4.70;;
58015;SDS011;43809;52.110;20.964;2023-05-02T05:31:24;8.00;;;4.30;;
58015;SDS011;43809;52.110;20.964;2023-05-02T05:33:24;6.80;;;4.25;;
58015;SDS011;43809;52.110;20.964;2023-05-02T05:35:24;8.30;;;4.65;;
58015;SDS011;43809;52.110;20.964;2023-05-02T05:37:24;8.18;;;4.57;;
58015;SDS011;43809;52.110;20.964;2023-05-02T05:39:25;7.88;;;4.50;;
58015;SDS011;43809;52.110;20.964;2023-05-02T05:41:26;8.02;;;4.20;;
58015;SDS011;43809;52.110;20.964;2023-05-02T05:43:27;9.13;;;4.18;;
58015;SDS011;43809;52.110;20.964;2023-05-02T05:45:27;7.25;;;4.63;;
58015;SDS011;43809;52.110;20.964;2023-05-02T05:47:27;7.00;;;4.43;;
58015;SDS011;43809;52.110;20.964;2023-05-02T05:49:27;8.15;;;4.32;;
58015;SDS011;43809;52.110;20.964;2023-05-02T05:51:28;8.18;;;4.30;;
58015;SDS011;43809;52.110;20.964;2023-05-02T05:53:28;12.18;;;4.38;;
58015;SDS011;43809;52.110;20.964;2023-05-02T05:55:28;9.37;;;4.50;;
58015;SDS011;43809;52.110;20.964;2023-05-02T05:57:28;7.32;;;4.40;;
58015;SDS011;43809;52.110;20.964;2023-05-02T05:59:29;9.33;;;3.90;;
58015;SDS011;43809;52.110;20.964;2023-05-02T06:01:29;7.28;;;3.90;;
58015;SDS011;43809;52.110;20.964;2023-05-02T06:03:30;7.38;;;4.18;;
58015;SDS011;43809;52.110;20.964;2023-05-02T06:05:31;7.75;;;4.55;;
58015;SDS011;43809;52.110;20.964;2023-05-02T06:07:31;6.60;;;3.83;;
58015;SDS011;43809;52.110;20.964;2023-05-02T06:09:31;8.32;;;4.85;;
58015;SDS011;43809;52.110;20.964;2023-05-02T06:11:32;6.15;;;4.22;;
58015;SDS011;43809;52.110;20.964;2023-05-02T06:13:32;6.75;;;4.00;;
58015;SDS011;43809;52.110;20.964;2023-05-02T06:15:32;6.43;;;4.00;;
58015;SDS011;43809;52.110;20.964;2023-05-02T06:17:34;8.60;;;4.72;;
58015;SDS011;43809;52.110;20.964;2023-05-02T06:19:34;7.70;;;4.45;;
58015;SDS011;43809;52.110;20.964;2023-05-02T06:21:35;15.98;;;4.90;;
58015;SDS011;43809;52.110;20.964;2023-05-02T06:23:35;6.65;;;4.30;;
58015;SDS011;43809;52.110;20.964;2023-05-02T06:25:36;13.95;;;4.82;;
58015;SDS011;43809;52.110;20.964;2023-05-02T06:27:36;7.93;;;4.10;;
58015;SDS011;43809;52.110;20.964;2023-05-02T06:29:36;8.07;;;4.50;;
58015;SDS011;43809;52.110;20.964;2023-05-02T06:31:36;6.83;;;4.97;;
58015;SDS011;43809;52.110;20.964;2023-05-02T06:33:37;9.57;;;4.43;;
58015;SDS011;43809;52.110;20.964;2023-05-02T06:35:37;6.85;;;4.15;;
58015;SDS011;43809;52.110;20.964;2023-05-02T06:37:38;7.65;;;4.00;;
58015;SDS011;43809;52.110;20.964;2023-05-02T06:39:38;6.10;;;4.27;;
58015;SDS011;43809;52.110;20.964;2023-05-02T06:41:38;6.77;;;3.87;;
58015;SDS011;43809;52.110;20.964;2023-05-02T06:43:38;7.07;;;3.92;;
58015;SDS011;43809;52.110;20.964;2023-05-02T06:45:39;6.38;;;4.22;;
58015;SDS011;43809;52.110;20.964;2023-05-02T06:47:39;5.00;;;3.67;;
58015;SDS011;43809;52.110;20.964;2023-05-02T06:49:39;6.20;;;4.03;;
58015;SDS011;43809;52.110;20.964;2023-05-02T06:51:47;43.27;;;7.30;;
58015;SDS011;43809;52.110;20.964;2023-05-02T06:53:47;6.97;;;4.25;;
58015;SDS011;43809;52.110;20.964;2023-05-02T06:55:47;6.78;;;4.00;;
58015;SDS011;43809;52.110;20.964;2023-05-02T06:57:48;5.72;;;3.55;;
58015;SDS011;43809;52.110;20.964;2023-05-02T06:59:48;6.40;;;3.50;;
58015;SDS011;43809;52.110;20.964;2023-05-02T07:01:48;4.90;;;3.27;;
58015;SDS011;43809;52.110;20.964;2023-05-02T07:03:49;8.30;;;4.10;;
58015;SDS011;43809;52.110;20.964;2023-05-02T07:05:49;5.53;;;3.60;;
58015;SDS011;43809;52.110;20.964;2023-05-02T07:07:50;7.53;;;3.57;;
58015;SDS011;43809;52.110;20.964;2023-05-02T07:09:50;6.83;;;3.80;;
58015;SDS011;43809;52.110;20.964;2023-05-02T07:11:51;4.38;;;3.10;;
58015;SDS011;43809;52.110;20.964;2023-05-02T07:13:51;5.40;;;3.37;;
58015;SDS011;43809;52.110;20.964;2023-05-02T07:15:51;4.77;;;3.00;;
58015;SDS011;43809;52.110;20.964;2023-05-02T07:17:52;4.43;;;3.30;;
58015;SDS011;43809;52.110;20.964;2023-05-02T07:19:52;6.18;;;3.35;;
58015;SDS011;43809;52.110;20.964;2023-05-02T07:21:52;5.72;;;3.38;;
58015;SDS011;43809;52.110;20.964;2023-05-02T07:23:53;4.60;;;3.10;;
58015;SDS011;43809;52.110;20.964;2023-05-02T07:27:59;6.90;;;3.25;;
58015;SDS011;43809;52.110;20.964;2023-05-02T07:30:00;6.70;;;2.78;;
58015;SDS011;43809;52.110;20.964;2023-05-02T07:32:00;3.50;;;2.60;;
58015;SDS011;43809;52.110;20.964;2023-05-02T07:34:00;3.97;;;3.10;;
58015;SDS011;43809;52.110;20.964;2023-05-02T07:36:01;4.30;;;2.83;;
58015;SDS011;43809;52.110;20.964;2023-05-02T07:38:01;133.07;;;12.23;;
58015;SDS011;43809;52.110;20.964;2023-05-02T07:40:02;4.85;;;2.80;;
58015;SDS011;43809;52.110;20.964;2023-05-02T07:42:02;4.18;;;2.42;;
58015;SDS011;43809;52.110;20.964;2023-05-02T07:44:02;5.43;;;3.90;;
58015;SDS011;43809;52.110;20.964;2023-05-02T07:46:05;5.18;;;2.70;;
58015;SDS011;43809;52.110;20.964;2023-05-02T07:50:05;7.78;;;2.97;;
58015;SDS011;43809;52.110;20.964;2023-05-02T07:52:05;3.35;;;2.70;;
58015;SDS011;43809;52.110;20.964;2023-05-02T07:54:15;5.13;;;3.10;;
58015;SDS011;43809;52.110;20.964;2023-05-02T07:56:16;2.78;;;2.40;;
58015;SDS011;43809;52.110;20.964;2023-05-02T07:58:16;5.00;;;3.00;;
58015;SDS011;43809;52.110;20.964;2023-05-02T08:00:16;13.53;;;3.73;;
58015;SDS011;43809;52.110;20.964;2023-05-02T08:02:17;3.78;;;2.80;;
58015;SDS011;43809;52.110;20.964;2023-05-02T08:04:19;5.05;;;2.33;;
58015;SDS011;43809;52.110;20.964;2023-05-02T08:06:19;6.60;;;3.00;;
58015;SDS011;43809;52.110;20.964;2023-05-02T08:08:19;5.93;;;3.17;;
58015;SDS011;43809;52.110;20.964;2023-05-02T08:10:19;3.87;;;3.03;;
58015;SDS011;43809;52.110;20.964;2023-05-02T08:12:20;4.65;;;2.63;;
58015;SDS011;43809;52.110;20.964;2023-05-02T08:14:20;4.60;;;2.90;;
58015;SDS011;43809;52.110;20.964;2023-05-02T08:16:21;5.90;;;2.60;;
58015;SDS011;43809;52.110;20.964;2023-05-02T08:18:21;4.43;;;2.87;;
58015;SDS011;43809;52.110;20.964;2023-05-02T08:20:21;5.20;;;2.90;;
58015;SDS011;43809;52.110;20.964;2023-05-02T08:22:21;4.00;;;3.13;;
58015;SDS011;43809;52.110;20.964;2023-05-02T08:24:22;3.53;;;2.67;;
58015;SDS011;43809;52.110;20.964;2023-05-02T08:26:22;5.78;;;3.28;;
58015;SDS011;43809;52.110;20.964;2023-05-02T08:28:23;4.53;;;2.97;;
58015;SDS011;43809;52.110;20.964;2023-05-02T08:30:24;6.18;;;3.10;;
58015;SDS011;43809;52.110;20.964;2023-05-02T08:32:24;7.82;;;2.92;;
58015;SDS011;43809;52.110;20.964;2023-05-02T08:34:25;4.13;;;2.58;;
58015;SDS011;43809;52.110;20.964;2023-05-02T08:36:26;4.93;;;3.17;;
58015;SDS011;43809;52.110;20.964;2023-05-02T08:38:27;3.83;;;3.22;;
58015;SDS011;43809;52.110;20.964;2023-05-02T08:40:27;6.83;;;3.60;;
58015;SDS011;43809;52.110;20.964;2023-05-02T08:42:32;4.25;;;3.05;;
58015;SDS011;43809;52.110;20.964;2023-05-02T08:44:32;4.95;;;2.60;;
58015;SDS011;43809;52.110;20.964;2023-05-02T08:46:34;5.60;;;3.00;;
58015;SDS011;43809;52.110;20.964;2023-05-02T08:48:35;15.88;;;3.60;;
58015;SDS011;43809;52.110;20.964;2023-05-02T08:50:39;4.60;;;3.33;;
58015;SDS011;43809;52.110;20.964;2023-05-02T08:52:40;4.95;;;2.95;;
58015;SDS011;43809;52.110;20.964;2023-05-02T08:54:41;6.38;;;3.33;;
58015;SDS011;43809;52.110;20.964;2023-05-02T08:56:41;4.07;;;2.70;;
58015;SDS011;43809;52.110;20.964;2023-05-02T08:58:41;4.00;;;2.90;;
58015;SDS011;43809;52.110;20.964;2023-05-02T09:00:42;5.27;;;3.07;;
58015;SDS011;43809;52.110;20.964;2023-05-02T09:03:05;3.22;;;2.92;;
58015;SDS011;43809;52.110;20.964;2023-05-02T09:05:07;6.13;;;2.70;;
58015;SDS011;43809;52.110;20.964;2023-05-02T09:07:10;6.18;;;3.35;;
58015;SDS011;43809;52.110;20.964;2023-05-02T09:09:11;26.30;;;4.55;;
58015;SDS011;43809;52.110;20.964;2023-05-02T09:11:11;7.00;;;3.40;;
58015;SDS011;43809;52.110;20.964;2023-05-02T09:15:30;6.75;;;3.28;;
58015;SDS011;43809;52.110;20.964;2023-05-02T09:17:37;5.38;;;3.17;;
58015;SDS011;43809;52.110;20.964;2023-05-02T09:19:40;4.72;;;3.00;;
58015;SDS011;43809;52.110;20.964;2023-05-02T09:21:41;5.67;;;3.60;;
58015;SDS011;43809;52.110;20.964;2023-05-02T09:23:43;9.18;;;3.95;;
58015;SDS011;43809;52.110;20.964;2023-05-02T09:25:44;8.63;;;3.80;;
58015;SDS011;43809;52.110;20.964;2023-05-02T09:27:54;18.67;;;4.10;;
58015;SDS011;43809;52.110;20.964;2023-05-02T09:32:13;6.57;;;3.60;;
58015;SDS011;43809;52.110;20.964;2023-05-02T09:34:14;5.23;;;3.80;;
58015;SDS011;43809;52.110;20.964;2023-05-02T09:36:15;6.05;;;3.97;;
58015;SDS011;43809;52.110;20.964;2023-05-02T09:38:17;38.27;;;6.80;;
58015;SDS011;43809;52.110;20.964;2023-05-02T09:42:29;15.38;;;4.57;;
58015;SDS011;43809;52.110;20.964;2023-05-02T09:44:38;7.15;;;3.78;;
58015;SDS011;43809;52.110;20.964;2023-05-02T09:46:43;6.35;;;3.83;;
58015;SDS011;43809;52.110;20.964;2023-05-02T09:48:56;4.55;;;4.00;;
58015;SDS011;43809;52.110;20.964;2023-05-02T09:50:57;6.38;;;4.10;;
58015;SDS011;43809;52.110;20.964;2023-05-02T09:53:07;7.55;;;4.30;;
58015;SDS011;43809;52.110;20.964;2023-05-02T09:55:19;13.63;;;4.28;;
58015;SDS011;43809;52.110;20.964;2023-05-02T09:57:19;7.43;;;4.55;;
58015;SDS011;43809;52.110;20.964;2023-05-02T09:59:19;6.78;;;4.60;;
58015;SDS011;43809;52.110;20.964;2023-05-02T10:01:20;6.22;;;4.57;;
58015;SDS011;43809;52.110;20.964;2023-05-02T10:03:20;11.98;;;4.72;;
58015;SDS011;43809;52.110;20.964;2023-05-02T10:05:22;6.65;;;5.18;;
58015;SDS011;43809;52.110;20.964;2023-05-02T10:07:22;6.32;;;4.65;;
58015;SDS011;43809;52.110;20.964;2023-05-02T10:09:23;6.20;;;4.15;;
58015;SDS011;43809;52.110;20.964;2023-05-02T10:11:24;13.70;;;5.50;;
58015;SDS011;43809;52.110;20.964;2023-05-02T10:13:27;5.50;;;4.10;;
58015;SDS011;43809;52.110;20.964;2023-05-02T10:15:31;9.40;;;5.35;;
58015;SDS011;43809;52.110;20.964;2023-05-02T10:17:39;6.28;;;4.88;;
58015;SDS011;43809;52.110;20.964;2023-05-02T10:20:03;5.53;;;3.90;;
58015;SDS011;43809;52.110;20.964;2023-05-02T10:22:02;5.93;;;4.72;;
58015;SDS011;43809;52.110;20.964;2023-05-02T10:24:03;7.65;;;4.00;;
58015;SDS011;43809;52.110;20.964;2023-05-02T10:26:04;5.45;;;3.70;;
58015;SDS011;43809;52.110;20.964;2023-05-02T10:28:04;5.25;;;4.18;;
58015;SDS011;43809;52.110;20.964;2023-05-02T10:30:05;10.55;;;3.85;;
58015;SDS011;43809;52.110;20.964;2023-05-02T10:32:06;4.90;;;3.40;;
58015;SDS011;43809;52.110;20.964;2023-05-02T10:34:08;9.77;;;4.53;;
58015;SDS011;43809;52.110;20.964;2023-05-02T10:36:10;5.65;;;3.80;;
58015;SDS011;43809;52.110;20.964;2023-05-02T10:38:15;5.50;;;3.78;;
58015;SDS011;43809;52.110;20.964;2023-05-02T10:40:17;5.95;;;3.70;;
58015;SDS011;43809;52.110;20.964;2023-05-02T10:42:18;5.07;;;3.17;;
58015;SDS011;43809;52.110;20.964;2023-05-02T10:44:31;3.20;;;2.90;;
58015;SDS011;43809;52.110;20.964;2023-05-02T10:46:33;5.82;;;4.05;;
58015;SDS011;43809;52.110;20.964;2023-05-02T10:52:46;6.80;;;4.63;;
58015;SDS011;43809;52.110;20.964;2023-05-02T10:54:47;4.65;;;3.90;;
58015;SDS011;43809;52.110;20.964;2023-05-02T10:59:48;7.55;;;4.38;;
58015;SDS011;43809;52.110;20.964;2023-05-02T11:06:04;6.38;;;4.93;;
58015;SDS011;43809;52.110;20.964;2023-05-02T11:14:50;9.60;;;6.20;;
58015;SDS011;43809;52.110;20.964;2023-05-02T11:18:59;7.93;;;6.07;;
58015;SDS011;43809;52.110;20.964;2023-05-02T11:21:23;13.30;;;6.38;;
58015;SDS011;43809;52.110;20.964;2023-05-02T11:23:21;31.00;;;7.30;;
58015;SDS011;43809;52.110;20.964;2023-05-02T11:25:30;9.80;;;5.05;;
58015;SDS011;43809;52.110;20.964;2023-05-02T11:29:50;10.97;;;6.10;;
58015;SDS011;43809;52.110;20.964;2023-05-02T11:31:52;11.05;;;6.00;;
58015;SDS011;43809;52.110;20.964;2023-05-02T11:33:55;8.80;;;6.43;;
58015;SDS011;43809;52.110;20.964;2023-05-02T11:35:56;12.10;;;6.43;;
58015;SDS011;43809;52.110;20.964;2023-05-02T11:40:15;9.37;;;6.03;;
58015;SDS011;43809;52.110;20.964;2023-05-02T11:42:28;6.00;;;5.00;;
58015;SDS011;43809;52.110;20.964;2023-05-02T11:44:29;8.60;;;5.28;;
58015;SDS011;43809;52.110;20.964;2023-05-02T11:46:29;8.15;;;5.65;;
58015;SDS011;43809;52.110;20.964;2023-05-02T11:48:30;6.80;;;5.10;;
58015;SDS011;43809;52.110;20.964;2023-05-02T11:50:32;6.43;;;5.28;;
58015;SDS011;43809;52.110;20.964;2023-05-02T11:52:39;7.15;;;5.03;;
58015;SDS011;43809;52.110;20.964;2023-05-02T11:54:39;7.18;;;4.88;;
58015;SDS011;43809;52.110;20.964;2023-05-02T11:56:43;11.93;;;4.78;;
58015;SDS011;43809;52.110;20.964;2023-05-02T11:58:43;9.95;;;5.20;;
58015;SDS011;43809;52.110;20.964;2023-05-02T12:00:44;8.85;;;4.65;;
58015;SDS011;43809;52.110;20.964;2023-05-02T12:02:47;6.60;;;4.15;;
58015;SDS011;43809;52.110;20.964;2023-05-02T12:04:47;7.72;;;4.65;;
58015;SDS011;43809;52.110;20.964;2023-05-02T12:06:55;5.87;;;3.70;;
58015;SDS011;43809;52.110;20.964;2023-05-02T12:09:08;4.40;;;4.00;;
58015;SDS011;43809;52.110;20.964;2023-05-02T12:11:11;5.35;;;3.65;;
58015;SDS011;43809;52.110;20.964;2023-05-02T12:13:11;4.65;;;4.00;;
58015;SDS011;43809;52.110;20.964;2023-05-02T12:15:12;5.55;;;4.00;;
58015;SDS011;43809;52.110;20.964;2023-05-02T12:17:12;9.33;;;4.70;;
58015;SDS011;43809;52.110;20.964;2023-05-02T12:19:12;4.50;;;3.40;;
58015;SDS011;43809;52.110;20.964;2023-05-02T12:21:13;8.95;;;3.78;;
58015;SDS011;43809;52.110;20.964;2023-05-02T12:23:13;4.68;;;3.25;;
58015;SDS011;43809;52.110;20.964;2023-05-02T12:25:14;12.45;;;4.15;;
58015;SDS011;43809;52.110;20.964;2023-05-02T12:27:14;4.93;;;3.53;;
58015;SDS011;43809;52.110;20.964;2023-05-02T12:29:15;7.97;;;4.97;;
58015;SDS011;43809;52.110;20.964;2023-05-02T12:31:16;5.55;;;3.90;;
58015;SDS011;43809;52.110;20.964;2023-05-02T12:33:16;5.13;;;3.72;;
58015;SDS011;43809;52.110;20.964;2023-05-02T12:35:20;5.93;;;4.20;;
58015;SDS011;43809;52.110;20.964;2023-05-02T12:37:22;7.22;;;5.00;;
58015;SDS011;43809;52.110;20.964;2023-05-02T12:39:39;7.23;;;4.70;;
58015;SDS011;43809;52.110;20.964;2023-05-02T12:41:39;7.53;;;5.30;;
58015;SDS011;43809;52.110;20.964;2023-05-02T12:43:45;6.43;;;4.78;;
58015;SDS011;43809;52.110;20.964;2023-05-02T12:45:46;9.27;;;5.82;;
58015;SDS011;43809;52.110;20.964;2023-05-02T12:47:47;7.23;;;4.50;;
58015;SDS011;43809;52.110;20.964;2023-05-02T12:51:51;9.15;;;5.07;;
58015;SDS011;43809;52.110;20.964;2023-05-02T12:53:52;18.88;;;6.28;;
58015;SDS011;43809;52.110;20.964;2023-05-02T12:56:00;6.23;;;4.70;;
58015;SDS011;43809;52.110;20.964;2023-05-02T12:58:04;6.40;;;5.07;;
58015;SDS011;43809;52.110;20.964;2023-05-02T13:00:05;7.75;;;5.53;;
58015;SDS011;43809;52.110;20.964;2023-05-02T13:02:05;9.40;;;5.30;;